createdAt,value
2023-02-16T00:00:59.544Z,12.20
2023-02-16T00:06:01.198Z,12.40
2023-02-16T00:11:29.322Z,13.13
2023-02-16T00:16:31.144Z,12.93
2023-02-16T00:21:32.822Z,13.43
2023-02-16T00:26:35.183Z,13.83
2023-02-16T00:31:36.930Z,14.03
2023-02-16T00:36:38.649Z,13.80
2023-02-16T00:41:52.274Z,14.93
2023-02-16T00:46:54.320Z,13.20
2023-02-16T00:51:56.326Z,12.47
2023-02-16T00:56:58.086Z,13.33
2023-02-16T01:01:59.757Z,13.47
2023-02-16T01:07:19.883Z,12.33
2023-02-16T01:12:22.079Z,13.40
2023-02-16T01:17:24.806Z,12.43
2023-02-16T01:22:26.841Z,13.13
2023-02-16T01:27:38.946Z,13.30
2023-02-16T01:32:40.649Z,12.13
2023-02-16T01:37:42.343Z,12.47
2023-02-16T01:43:00.873Z,13.07
2023-02-16T01:48:10.702Z,12.60
2023-02-16T01:53:26.186Z,12.37
2023-02-16T01:58:43.119Z,14.23
2023-02-16T02:04:03.337Z,12.13
2023-02-16T02:09:25.654Z,11.33
2023-02-16T02:14:35.456Z,12.53
2023-02-16T02:19:57.080Z,12.63
2023-02-16T02:25:04.817Z,16.23
2023-02-16T02:30:47.465Z,16.37
2023-02-16T02:35:58.529Z,13.90
2023-02-16T02:41:23.767Z,15.07
2023-02-16T02:46:33.361Z,16.30
2023-02-16T02:51:40.164Z,14.77
2023-02-16T02:57:06.516Z,14.83
2023-02-16T03:02:08.767Z,15.77
2023-02-16T03:07:12.462Z,15.27
2023-02-16T03:12:33.624Z,11.77
2023-02-16T03:17:56.611Z,10.53
2023-02-16T03:23:17.760Z,10.13
2023-02-16T03:28:41.574Z,9.63
2023-02-16T03:33:43.608Z,9.97
2023-02-16T03:38:45.383Z,10.10
2023-02-16T03:43:47.036Z,9.97
2023-02-16T03:48:48.811Z,10.53
2023-02-16T03:53:51.456Z,11.50
2023-02-16T03:58:53.354Z,11.03
2023-02-16T04:03:55.164Z,10.33
2023-02-16T04:08:56.913Z,11.20
2023-02-16T04:13:58.589Z,10.63
2023-02-16T04:19:00.268Z,11.40
2023-02-16T04:24:02.594Z,10.73
2023-02-16T04:29:04.300Z,11.30
2023-02-16T04:34:06.228Z,11.53
2023-02-16T04:39:07.900Z,11.13
2023-02-16T04:44:09.736Z,11.27
2023-02-16T04:49:11.465Z,11.43
2023-02-16T04:54:13.196Z,11.50
2023-02-16T04:59:16.006Z,10.93
2023-02-16T05:04:17.678Z,10.70
2023-02-16T05:09:19.383Z,11.87
2023-02-16T05:14:45.454Z,11.10
2023-02-16T05:19:52.589Z,10.77
2023-02-16T05:24:54.384Z,10.80
2023-02-16T05:29:56.487Z,10.43
2023-02-16T05:34:58.169Z,11.00
2023-02-16T05:39:59.858Z,10.60
2023-02-16T05:45:02.382Z,11.00
2023-02-16T05:50:04.502Z,11.53
2023-02-16T05:55:06.367Z,11.70
2023-02-16T06:00:08.715Z,25.50
2023-02-16T06:05:10.421Z,17.17
2023-02-16T06:10:12.173Z,13.73
2023-02-16T06:15:13.851Z,11.93
2023-02-16T06:20:15.546Z,10.33
2023-02-16T06:25:20.216Z,10.43
2023-02-16T06:30:22.277Z,10.07
2023-02-16T06:35:23.960Z,10.97
2023-02-16T06:40:25.981Z,11.67
2023-02-16T06:45:27.714Z,11.00
2023-02-16T06:50:29.375Z,9.50
2023-02-16T06:55:34.269Z,9.57
2023-02-16T07:00:36.024Z,9.30
2023-02-16T07:05:37.907Z,9.97
2023-02-16T07:10:50.176Z,9.73
2023-02-16T07:15:52.304Z,9.10
2023-02-16T07:20:53.989Z,10.23
2023-02-16T07:25:55.628Z,11.10
2023-02-16T07:30:57.326Z,10.70
2023-02-16T07:35:59.032Z,10.93
2023-02-16T07:41:00.886Z,10.30
2023-02-16T07:46:02.734Z,11.27
2023-02-16T07:51:05.037Z,10.27
2023-02-16T07:56:07.004Z,10.97
2023-02-16T08:01:10.561Z,9.57
2023-02-16T08:06:12.510Z,9.47
2023-02-16T08:11:23.003Z,8.20
2023-02-16T08:16:27.193Z,9.03
2023-02-16T08:21:31.952Z,8.63
2023-02-16T08:26:39.587Z,7.17
2023-02-16T08:31:42.008Z,7.47
2023-02-16T08:36:45.675Z,8.20
2023-02-16T08:41:49.772Z,8.97
2023-02-16T08:46:53.645Z,9.20
2023-02-16T08:51:58.328Z,10.43
2023-02-16T08:57:02.728Z,10.80
2023-02-16T09:02:04.871Z,10.30
2023-02-16T09:07:06.560Z,10.17
2023-02-16T09:12:08.261Z,9.50
2023-02-16T09:17:09.948Z,8.23
2023-02-16T09:22:12.053Z,8.23
2023-02-16T09:27:13.719Z,6.73
2023-02-16T09:32:15.600Z,6.90
2023-02-16T09:37:17.259Z,6.77
2023-02-16T09:42:50.804Z,7.07
2023-02-16T09:47:55.098Z,8.20
2023-02-16T09:53:05.655Z,9.93
2023-02-16T09:58:19.128Z,9.77
2023-02-16T10:03:41.409Z,9.60
2023-02-16T10:08:53.847Z,9.47
2023-02-16T10:13:59.043Z,8.30
2023-02-16T10:19:05.820Z,8.43
2023-02-16T10:24:07.964Z,8.63
2023-02-16T10:29:19.110Z,8.40
2023-02-16T10:34:49.467Z,8.50
2023-02-16T10:40:29.135Z,8.30
2023-02-16T10:45:31.886Z,8.83
2023-02-16T10:50:39.940Z,9.07
2023-02-16T10:55:41.761Z,9.23
2023-02-16T11:01:08.503Z,9.40
2023-02-16T11:06:23.055Z,8.77
2023-02-16T11:11:29.337Z,9.23
2023-02-16T11:16:31.927Z,8.40
2023-02-16T11:21:50.234Z,8.50
2023-02-16T11:27:20.729Z,8.53
2023-02-16T11:32:22.488Z,7.70
2023-02-16T11:37:33.332Z,7.37
2023-02-16T11:42:44.461Z,6.50
2023-02-16T11:48:00.953Z,7.83
2023-02-16T11:53:16.448Z,6.27
2023-02-16T11:58:27.706Z,6.60
2023-02-16T12:04:12.799Z,5.80
2023-02-16T12:09:35.878Z,6.07
2023-02-16T12:14:56.316Z,6.27
2023-02-16T12:20:25.717Z,6.10
2023-02-16T12:25:37.743Z,6.37
2023-02-16T12:30:45.428Z,6.30
2023-02-16T12:36:20.174Z,6.37
2023-02-16T12:41:47.354Z,6.00
2023-02-16T12:46:58.116Z,5.80
2023-02-16T12:52:10.003Z,5.33
2023-02-16T12:57:15.822Z,5.70
2023-02-16T13:02:31.071Z,5.67
2023-02-16T13:07:42.982Z,5.40
2023-02-16T13:13:10.622Z,5.53
2023-02-16T13:18:22.987Z,5.03
2023-02-16T13:23:59.448Z,5.77
2023-02-16T13:29:33.195Z,6.87
2023-02-16T13:34:53.689Z,6.00
2023-02-16T13:39:58.421Z,6.53
2023-02-16T13:45:04.240Z,5.80
2023-02-16T13:50:09.687Z,6.27
2023-02-16T13:55:31.687Z,7.03
2023-02-16T14:00:45.312Z,6.43
2023-02-16T14:05:52.185Z,7.27
2023-02-16T14:10:53.895Z,8.10
2023-02-16T14:15:59.422Z,7.70
2023-02-16T14:21:04.331Z,7.20
2023-02-16T14:26:08.509Z,7.60
2023-02-16T14:31:18.170Z,7.67
2023-02-16T14:36:24.206Z,7.07
2023-02-16T14:41:34.523Z,7.60
2023-02-16T14:47:21.749Z,8.13
2023-02-16T14:53:10.683Z,7.23
2023-02-16T14:58:25.894Z,7.57
2023-02-16T15:03:41.767Z,7.20
2023-02-16T15:08:48.948Z,7.40
2023-02-16T15:13:53.313Z,6.87
2023-02-16T15:18:56.840Z,6.73
2023-02-16T15:24:00.733Z,6.53
2023-02-16T15:29:22.623Z,6.50
2023-02-16T15:34:30.663Z,6.60
2023-02-16T15:39:48.433Z,6.80
2023-02-16T15:44:57.338Z,6.10
2023-02-16T15:50:12.233Z,5.77
2023-02-16T15:55:14.038Z,6.63
2023-02-16T16:00:19.461Z,6.23
2023-02-16T16:05:35.533Z,6.63
2023-02-16T16:10:41.285Z,6.00
2023-02-16T16:15:46.547Z,5.97
2023-02-16T16:20:59.007Z,5.77
2023-02-16T16:26:00.641Z,5.70
2023-02-16T16:31:31.258Z,6.00
2023-02-16T16:36:53.275Z,6.30
2023-02-16T16:42:00.958Z,5.93
2023-02-16T16:47:35.336Z,6.20
2023-02-16T16:52:46.276Z,7.60
2023-02-16T16:57:53.353Z,6.43
2023-02-16T17:02:55.072Z,5.67
2023-02-16T17:07:56.856Z,5.53
2023-02-16T17:13:00.010Z,6.63
2023-02-16T17:18:02.417Z,6.53
2023-02-16T17:23:05.022Z,6.20
2023-02-16T17:28:07.196Z,6.50
2023-02-16T17:33:10.024Z,6.27
2023-02-16T17:38:19.657Z,6.90
2023-02-16T17:43:22.269Z,6.70
2023-02-16T17:48:28.350Z,5.63
2023-02-16T17:53:30.194Z,6.13
2023-02-16T17:58:31.891Z,5.30
2023-02-16T18:03:33.622Z,5.90
2023-02-16T18:08:35.287Z,5.90
2023-02-16T18:13:36.992Z,8.07
2023-02-16T18:18:39.367Z,5.90
2023-02-16T18:23:41.216Z,7.20
2023-02-16T18:28:43.558Z,7.47
2023-02-16T18:33:45.243Z,6.70
2023-02-16T18:38:46.983Z,6.57
2023-02-16T18:43:48.688Z,7.10
2023-02-16T18:48:50.454Z,6.93
2023-02-16T18:53:52.151Z,7.23
2023-02-16T18:58:54.348Z,6.30
2023-02-16T19:03:56.849Z,7.03
2023-02-16T19:08:59.849Z,7.03
2023-02-16T19:14:01.550Z,7.03
2023-02-16T19:19:03.432Z,6.83
2023-02-16T19:24:05.426Z,7.20
2023-02-16T19:29:07.694Z,7.30
2023-02-16T19:34:09.491Z,7.23
2023-02-16T19:39:12.589Z,7.77
2023-02-16T19:44:14.757Z,8.40
2023-02-16T19:49:17.121Z,13.13
2023-02-16T19:54:18.788Z,10.90
2023-02-16T19:59:20.495Z,9.57
2023-02-16T20:04:22.876Z,9.50
2023-02-16T20:09:24.986Z,7.73
2023-02-16T20:14:26.632Z,6.53
2023-02-16T20:19:28.285Z,7.40
2023-02-16T20:24:29.968Z,7.97
2023-02-16T20:29:32.234Z,8.17
2023-02-16T20:34:34.076Z,6.77
2023-02-16T20:39:35.828Z,6.60
2023-02-16T20:44:37.802Z,6.13
2023-02-16T20:49:39.635Z,5.47
2023-02-16T20:54:41.654Z,5.53
2023-02-16T20:59:43.330Z,5.97
2023-02-16T21:04:45.000Z,7.17
2023-02-16T21:09:46.689Z,6.77
2023-02-16T21:14:48.346Z,6.10
2023-02-16T21:19:50.025Z,5.87
2023-02-16T21:24:52.241Z,5.80
2023-02-16T21:29:54.040Z,5.53
2023-02-16T21:34:56.338Z,4.93
2023-02-16T21:40:16.846Z,5.50
2023-02-16T21:45:18.796Z,6.00
2023-02-16T21:50:20.474Z,5.17
2023-02-16T21:55:40.883Z,5.73
2023-02-16T22:00:43.921Z,5.63
2023-02-16T22:05:46.023Z,5.90
2023-02-16T22:10:47.810Z,5.90
2023-02-16T22:15:49.482Z,4.57
2023-02-16T22:20:51.221Z,6.27
2023-02-16T22:25:53.052Z,5.63
2023-02-16T22:30:54.822Z,4.80
2023-02-16T22:35:56.483Z,5.30
2023-02-16T22:40:58.177Z,5.30
2023-02-16T22:45:59.981Z,5.17
2023-02-16T22:51:04.497Z,5.60
2023-02-16T22:56:07.876Z,6.00
2023-02-16T23:01:15.116Z,6.30
2023-02-16T23:06:19.575Z,5.67
2023-02-16T23:11:21.415Z,5.77
2023-02-16T23:16:25.696Z,6.00
2023-02-16T23:21:30.445Z,5.73
2023-02-16T23:26:32.553Z,5.80
2023-02-16T23:31:36.405Z,5.37
2023-02-16T23:36:38.920Z,5.70
2023-02-16T23:41:41.163Z,5.77
2023-02-16T23:46:43.024Z,5.83
2023-02-16T23:51:44.703Z,5.67
2023-02-16T23:56:46.436Z,6.23
